sensor_id;sensor_type;location;lat;lon;timestamp;P1;durP1;ratioP1;P2;durP2;ratioP2
11837;SDS011;5978;51.020;6.764;2023-04-30T00:00:12;32.90;;;19.23;;
11837;SDS011;5978;51.020;6.764;2023-04-30T00:02:37;23.00;;;17.77;;
11837;SDS011;5978;51.020;6.764;2023-04-30T00:05:03;21.73;;;16.87;;
11837;SDS011;5978;51.020;6.764;2023-04-30T00:07:29;25.63;;;17.70;;
11837;SDS011;5978;51.020;6.764;2023-04-30T00:09:56;22.50;;;17.40;;
11837;SDS011;5978;51.020;6.764;2023-04-30T00:12:22;21.37;;;17.67;;
11837;SDS011;5978;51.020;6.764;2023-04-30T00:14:47;22.13;;;16.27;;
11837;SDS011;5978;51.020;6.764;2023-04-30T00:17:13;22.33;;;16.40;;
11837;SDS011;5978;51.020;6.764;2023-04-30T00:19:39;25.93;;;16.53;;
11837;SDS011;5978;51.020;6.764;2023-04-30T00:22:05;23.07;;;16.80;;
11837;SDS011;5978;51.020;6.764;2023-04-30T00:24:31;28.02;;;16.85;;
11837;SDS011;5978;51.020;6.764;2023-04-30T00:26:57;21.60;;;16.47;;
11837;SDS011;5978;51.020;6.764;2023-04-30T00:29:23;28.10;;;16.97;;
11837;SDS011;5978;51.020;6.764;2023-04-30T00:31:49;32.10;;;18.50;;
11837;SDS011;5978;51.020;6.764;2023-04-30T00:34:14;22.20;;;18.17;;
11837;SDS011;5978;51.020;6.764;2023-04-30T00:36:40;24.30;;;17.33;;
11837;SDS011;5978;51.020;6.764;2023-04-30T00:39:06;25.03;;;17.07;;
11837;SDS011;5978;51.020;6.764;2023-04-30T00:41:35;26.57;;;17.73;;
11837;SDS011;5978;51.020;6.764;2023-04-30T00:44:02;29.63;;;17.27;;
11837;SDS011;5978;51.020;6.764;2023-04-30T00:46:28;25.60;;;18.10;;
11837;SDS011;5978;51.020;6.764;2023-04-30T00:48:55;24.40;;;18.50;;
11837;SDS011;5978;51.020;6.764;2023-04-30T00:51:20;22.55;;;16.90;;
11837;SDS011;5978;51.020;6.764;2023-04-30T00:53:47;29.08;;;17.15;;
11837;SDS011;5978;51.020;6.764;2023-04-30T00:56:12;28.33;;;16.93;;
11837;SDS011;5978;51.020;6.764;2023-04-30T00:58:42;23.83;;;17.23;;
11837;SDS011;5978;51.020;6.764;2023-04-30T01:01:07;21.93;;;17.90;;
11837;SDS011;5978;51.020;6.764;2023-04-30T01:03:34;23.03;;;17.17;;
11837;SDS011;5978;51.020;6.764;2023-04-30T01:06:00;20.25;;;16.25;;
11837;SDS011;5978;51.020;6.764;2023-04-30T01:08:28;21.77;;;14.95;;
11837;SDS011;5978;51.020;6.764;2023-04-30T01:11:14;23.25;;;15.65;;
11837;SDS011;5978;51.020;6.764;2023-04-30T01:13:58;26.50;;;15.07;;
11837;SDS011;5978;51.020;6.764;2023-04-30T01:16:53;17.30;;;15.48;;
11837;SDS011;5978;51.020;6.764;2023-04-30T01:19:41;26.67;;;17.80;;
11837;SDS011;5978;51.020;6.764;2023-04-30T01:22:11;25.80;;;16.83;;
11837;SDS011;5978;51.020;6.764;2023-04-30T01:25:34;21.52;;;15.10;;
11837;SDS011;5978;51.020;6.764;2023-04-30T01:28:01;18.42;;;14.10;;
11837;SDS011;5978;51.020;6.764;2023-04-30T01:30:33;24.55;;;16.02;;
11837;SDS011;5978;51.020;6.764;2023-04-30T01:33:01;20.85;;;15.07;;
11837;SDS011;5978;51.020;6.764;2023-04-30T01:35:34;20.02;;;15.20;;
11837;SDS011;5978;51.020;6.764;2023-04-30T01:41:49;18.92;;;15.57;;
11837;SDS011;5978;51.020;6.764;2023-04-30T01:44:37;23.55;;;16.52;;
11837;SDS011;5978;51.020;6.764;2023-04-30T01:47:29;20.75;;;15.50;;
11837;SDS011;5978;51.020;6.764;2023-04-30T01:53:08;21.58;;;15.00;;
11837;SDS011;5978;51.020;6.764;2023-04-30T01:55:37;20.80;;;15.68;;
11837;SDS011;5978;51.020;6.764;2023-04-30T01:58:15;21.13;;;14.88;;
11837;SDS011;5978;51.020;6.764;2023-04-30T02:00:41;18.35;;;15.02;;
11837;SDS011;5978;51.020;6.764;2023-04-30T02:03:07;22.50;;;15.57;;
11837;SDS011;5978;51.020;6.764;2023-04-30T02:05:33;18.90;;;14.10;;
11837;SDS011;5978;51.020;6.764;2023-04-30T02:07:58;19.37;;;14.60;;
11837;SDS011;5978;51.020;6.764;2023-04-30T02:10:25;19.60;;;14.30;;
11837;SDS011;5978;51.020;6.764;2023-04-30T02:12:51;23.85;;;14.57;;
11837;SDS011;5978;51.020;6.764;2023-04-30T02:15:17;18.05;;;15.20;;
11837;SDS011;5978;51.020;6.764;2023-04-30T02:17:43;20.00;;;13.93;;
11837;SDS011;5978;51.020;6.764;2023-04-30T02:20:08;18.37;;;14.67;;
11837;SDS011;5978;51.020;6.764;2023-04-30T02:22:35;21.40;;;15.27;;
11837;SDS011;5978;51.020;6.764;2023-04-30T02:25:00;20.47;;;14.67;;
11837;SDS011;5978;51.020;6.764;2023-04-30T02:27:30;24.40;;;15.50;;
11837;SDS011;5978;51.020;6.764;2023-04-30T02:29:56;24.13;;;16.17;;
11837;SDS011;5978;51.020;6.764;2023-04-30T02:32:23;20.63;;;14.77;;
11837;SDS011;5978;51.020;6.764;2023-04-30T02:34:48;18.57;;;13.73;;
11837;SDS011;5978;51.020;6.764;2023-04-30T02:37:14;20.30;;;15.20;;
11837;SDS011;5978;51.020;6.764;2023-04-30T02:39:40;18.75;;;13.90;;
11837;SDS011;5978;51.020;6.764;2023-04-30T02:42:06;24.58;;;15.88;;
11837;SDS011;5978;51.020;6.764;2023-04-30T02:44:32;19.03;;;13.90;;
11837;SDS011;5978;51.020;6.764;2023-04-30T02:46:58;19.05;;;13.77;;
11837;SDS011;5978;51.020;6.764;2023-04-30T02:49:25;30.00;;;15.18;;
11837;SDS011;5978;51.020;6.764;2023-04-30T02:51:50;20.97;;;14.57;;
11837;SDS011;5978;51.020;6.764;2023-04-30T02:54:16;18.70;;;12.87;;
11837;SDS011;5978;51.020;6.764;2023-04-30T02:56:42;24.20;;;13.93;;
11837;SDS011;5978;51.020;6.764;2023-04-30T02:59:08;24.87;;;15.60;;
11837;SDS011;5978;51.020;6.764;2023-04-30T03:01:34;20.43;;;14.37;;
11837;SDS011;5978;51.020;6.764;2023-04-30T03:03:59;23.70;;;15.00;;
11837;SDS011;5978;51.020;6.764;2023-04-30T03:06:27;25.70;;;16.10;;
11837;SDS011;5978;51.020;6.764;2023-04-30T03:08:53;19.30;;;13.43;;
11837;SDS011;5978;51.020;6.764;2023-04-30T03:11:19;20.27;;;13.70;;
11837;SDS011;5978;51.020;6.764;2023-04-30T03:13:46;18.98;;;13.70;;
11837;SDS011;5978;51.020;6.764;2023-04-30T03:16:16;18.60;;;13.88;;
11837;SDS011;5978;51.020;6.764;2023-04-30T03:18:42;18.10;;;14.43;;
11837;SDS011;5978;51.020;6.764;2023-04-30T03:21:08;19.03;;;13.80;;
11837;SDS011;5978;51.020;6.764;2023-04-30T03:23:34;20.43;;;14.43;;
11837;SDS011;5978;51.020;6.764;2023-04-30T03:26:00;21.60;;;13.93;;
11837;SDS011;5978;51.020;6.764;2023-04-30T03:28:25;19.10;;;14.60;;
11837;SDS011;5978;51.020;6.764;2023-04-30T03:30:51;20.87;;;13.70;;
11837;SDS011;5978;51.020;6.764;2023-04-30T03:33:17;18.47;;;13.60;;
11837;SDS011;5978;51.020;6.764;2023-04-30T03:35:42;15.10;;;11.93;;
11837;SDS011;5978;51.020;6.764;2023-04-30T03:38:08;21.50;;;14.33;;
11837;SDS011;5978;51.020;6.764;2023-04-30T03:40:34;19.13;;;13.50;;
11837;SDS011;5978;51.020;6.764;2023-04-30T03:43:00;18.00;;;13.83;;
11837;SDS011;5978;51.020;6.764;2023-04-30T03:45:26;19.37;;;13.83;;
11837;SDS011;5978;51.020;6.764;2023-04-30T03:47:51;23.33;;;14.63;;
11837;SDS011;5978;51.020;6.764;2023-04-30T03:50:17;20.23;;;14.60;;
11837;SDS011;5978;51.020;6.764;2023-04-30T03:52:43;19.80;;;14.13;;
11837;SDS011;5978;51.020;6.764;2023-04-30T03:55:09;21.08;;;14.27;;
11837;SDS011;5978;51.020;6.764;2023-04-30T03:57:35;23.43;;;14.80;;
11837;SDS011;5978;51.020;6.764;2023-04-30T04:00:01;23.23;;;14.68;;
11837;SDS011;5978;51.020;6.764;2023-04-30T04:02:31;18.63;;;13.75;;
11837;SDS011;5978;51.020;6.764;2023-04-30T04:04:57;23.63;;;14.65;;
11837;SDS011;5978;51.020;6.764;2023-04-30T04:07:23;19.90;;;13.50;;
11837;SDS011;5978;51.020;6.764;2023-04-30T04:09:49;19.83;;;14.17;;
11837;SDS011;5978;51.020;6.764;2023-04-30T04:12:15;22.77;;;13.83;;
11837;SDS011;5978;51.020;6.764;2023-04-30T04:14:40;18.13;;;13.47;;
11837;SDS011;5978;51.020;6.764;2023-04-30T04:17:06;22.13;;;14.90;;
11837;SDS011;5978;51.020;6.764;2023-04-30T04:19:32;19.25;;;13.88;;
11837;SDS011;5978;51.020;6.764;2023-04-30T04:21:58;19.73;;;14.43;;
11837;SDS011;5978;51.020;6.764;2023-04-30T04:24:24;18.87;;;15.20;;
11837;SDS011;5978;51.020;6.764;2023-04-30T04:26:50;20.90;;;15.18;;
11837;SDS011;5978;51.020;6.764;2023-04-30T04:29:16;19.43;;;12.80;;
11837;SDS011;5978;51.020;6.764;2023-04-30T04:31:42;17.33;;;13.97;;
11837;SDS011;5978;51.020;6.764;2023-04-30T04:34:07;18.67;;;14.75;;
11837;SDS011;5978;51.020;6.764;2023-04-30T04:36:33;19.50;;;14.57;;
11837;SDS011;5978;51.020;6.764;2023-04-30T04:38:59;23.83;;;15.40;;
11837;SDS011;5978;51.020;6.764;2023-04-30T04:41:29;20.90;;;14.55;;
11837;SDS011;5978;51.020;6.764;2023-04-30T04:43:57;19.20;;;14.38;;
11837;SDS011;5978;51.020;6.764;2023-04-30T04:46:23;18.95;;;13.00;;
11837;SDS011;5978;51.020;6.764;2023-04-30T04:48:49;21.23;;;13.90;;
11837;SDS011;5978;51.020;6.764;2023-04-30T04:51:15;17.10;;;13.80;;
11837;SDS011;5978;51.020;6.764;2023-04-30T04:53:41;21.20;;;13.40;;
11837;SDS011;5978;51.020;6.764;2023-04-30T04:56:07;25.83;;;14.60;;
11837;SDS011;5978;51.020;6.764;2023-04-30T04:58:33;20.60;;;12.98;;
11837;SDS011;5978;51.020;6.764;2023-04-30T05:00:59;19.38;;;13.95;;
11837;SDS011;5978;51.020;6.764;2023-04-30T05:03:26;25.20;;;15.75;;
11837;SDS011;5978;51.020;6.764;2023-04-30T05:05:52;20.15;;;14.90;;
11837;SDS011;5978;51.020;6.764;2023-04-30T05:08:17;21.73;;;14.27;;
11837;SDS011;5978;51.020;6.764;2023-04-30T05:10:43;17.40;;;13.83;;
11837;SDS011;5978;51.020;6.764;2023-04-30T05:13:09;17.37;;;14.07;;
11837;SDS011;5978;51.020;6.764;2023-04-30T05:15:35;24.73;;;15.37;;
11837;SDS011;5978;51.020;6.764;2023-04-30T05:18:01;21.83;;;15.20;;
11837;SDS011;5978;51.020;6.764;2023-04-30T05:20:26;19.60;;;13.33;;
11837;SDS011;5978;51.020;6.764;2023-04-30T05:22:52;22.03;;;15.53;;
11837;SDS011;5978;51.020;6.764;2023-04-30T05:25:18;19.93;;;14.77;;
11837;SDS011;5978;51.020;6.764;2023-04-30T05:27:43;23.17;;;14.30;;
11837;SDS011;5978;51.020;6.764;2023-04-30T05:30:09;18.20;;;14.37;;
11837;SDS011;5978;51.020;6.764;2023-04-30T05:32:35;21.50;;;14.10;;
11837;SDS011;5978;51.020;6.764;2023-04-30T05:35:01;25.20;;;15.60;;
11837;SDS011;5978;51.020;6.764;2023-04-30T05:37:27;23.50;;;15.03;;
11837;SDS011;5978;51.020;6.764;2023-04-30T05:39:52;22.23;;;15.20;;
11837;SDS011;5978;51.020;6.764;2023-04-30T05:42:18;22.67;;;15.27;;
11837;SDS011;5978;51.020;6.764;2023-04-30T05:44:44;18.58;;;13.68;;
11837;SDS011;5978;51.020;6.764;2023-04-30T05:47:10;19.70;;;15.30;;
11837;SDS011;5978;51.020;6.764;2023-04-30T05:49:36;19.70;;;14.40;;
11837;SDS011;5978;51.020;6.764;2023-04-30T05:52:02;28.50;;;16.77;;
11837;SDS011;5978;51.020;6.764;2023-04-30T05:54:28;26.97;;;16.30;;
11837;SDS011;5978;51.020;6.764;2023-04-30T05:56:55;18.23;;;15.45;;
11837;SDS011;5978;51.020;6.764;2023-04-30T05:59:20;21.67;;;16.47;;
11837;SDS011;5978;51.020;6.764;2023-04-30T06:01:46;20.13;;;14.40;;
11837;SDS011;5978;51.020;6.764;2023-04-30T06:04:12;19.60;;;14.93;;
11837;SDS011;5978;51.020;6.764;2023-04-30T06:06:38;20.57;;;13.67;;
11837;SDS011;5978;51.020;6.764;2023-04-30T06:09:03;27.03;;;17.87;;
11837;SDS011;5978;51.020;6.764;2023-04-30T06:11:29;25.30;;;16.03;;
11837;SDS011;5978;51.020;6.764;2023-04-30T06:13:55;20.05;;;14.98;;
11837;SDS011;5978;51.020;6.764;2023-04-30T06:16:22;21.08;;;14.88;;
11837;SDS011;5978;51.020;6.764;2023-04-30T06:18:48;26.40;;;15.30;;
11837;SDS011;5978;51.020;6.764;2023-04-30T06:21:13;23.87;;;16.20;;
11837;SDS011;5978;51.020;6.764;2023-04-30T06:23:39;19.33;;;14.43;;
11837;SDS011;5978;51.020;6.764;2023-04-30T06:26:05;18.93;;;13.83;;
11837;SDS011;5978;51.020;6.764;2023-04-30T06:28:30;20.00;;;14.60;;
11837;SDS011;5978;51.020;6.764;2023-04-30T06:30:56;23.07;;;15.67;;
11837;SDS011;5978;51.020;6.764;2023-04-30T06:33:22;21.50;;;14.20;;
11837;SDS011;5978;51.020;6.764;2023-04-30T06:35:47;20.97;;;15.00;;
11837;SDS011;5978;51.020;6.764;2023-04-30T06:38:15;18.90;;;14.30;;
11837;SDS011;5978;51.020;6.764;2023-04-30T06:40:42;21.63;;;15.27;;
11837;SDS011;5978;51.020;6.764;2023-04-30T06:43:08;24.10;;;16.00;;
11837;SDS011;5978;51.020;6.764;2023-04-30T06:45:33;23.80;;;16.50;;
11837;SDS011;5978;51.020;6.764;2023-04-30T06:47:59;21.60;;;16.07;;
11837;SDS011;5978;51.020;6.764;2023-04-30T06:50:25;19.00;;;15.67;;
11837;SDS011;5978;51.020;6.764;2023-04-30T06:52:51;23.33;;;15.30;;
11837;SDS011;5978;51.020;6.764;2023-04-30T06:55:16;27.03;;;17.03;;
11837;SDS011;5978;51.020;6.764;2023-04-30T06:57:42;23.60;;;17.57;;
11837;SDS011;5978;51.020;6.764;2023-04-30T07:00:08;20.87;;;15.97;;
11837;SDS011;5978;51.020;6.764;2023-04-30T07:02:34;19.43;;;15.57;;
11837;SDS011;5978;51.020;6.764;2023-04-30T07:05:00;22.97;;;14.17;;
11837;SDS011;5978;51.020;6.764;2023-04-30T07:07:25;26.57;;;14.90;;
11837;SDS011;5978;51.020;6.764;2023-04-30T07:09:51;20.27;;;14.60;;
11837;SDS011;5978;51.020;6.764;2023-04-30T07:12:17;21.40;;;15.50;;
11837;SDS011;5978;51.020;6.764;2023-04-30T07:14:43;21.50;;;15.60;;
11837;SDS011;5978;51.020;6.764;2023-04-30T07:17:09;20.60;;;14.53;;
11837;SDS011;5978;51.020;6.764;2023-04-30T07:19:35;20.20;;;14.57;;
11837;SDS011;5978;51.020;6.764;2023-04-30T07:22:01;19.03;;;14.53;;
11837;SDS011;5978;51.020;6.764;2023-04-30T07:24:26;24.03;;;16.83;;
11837;SDS011;5978;51.020;6.764;2023-04-30T07:26:52;22.50;;;14.53;;
11837;SDS011;5978;51.020;6.764;2023-04-30T07:29:18;24.53;;;16.53;;
11837;SDS011;5978;51.020;6.764;2023-04-30T07:31:43;21.60;;;15.27;;
11837;SDS011;5978;51.020;6.764;2023-04-30T07:34:09;19.20;;;14.83;;
11837;SDS011;5978;51.020;6.764;2023-04-30T07:36:35;21.73;;;14.47;;
11837;SDS011;5978;51.020;6.764;2023-04-30T07:39:02;20.73;;;16.10;;
11837;SDS011;5978;51.020;6.764;2023-04-30T07:41:28;24.90;;;17.00;;
11837;SDS011;5978;51.020;6.764;2023-04-30T07:43:54;20.47;;;16.60;;
11837;SDS011;5978;51.020;6.764;2023-04-30T07:46:20;22.30;;;16.40;;
11837;SDS011;5978;51.020;6.764;2023-04-30T07:48:45;19.53;;;14.50;;
11837;SDS011;5978;51.020;6.764;2023-04-30T07:51:11;21.93;;;15.63;;
11837;SDS011;5978;51.020;6.764;2023-04-30T07:53:36;19.20;;;15.17;;
11837;SDS011;5978;51.020;6.764;2023-04-30T07:56:02;22.83;;;16.30;;
11837;SDS011;5978;51.020;6.764;2023-04-30T07:58:28;21.40;;;16.77;;
11837;SDS011;5978;51.020;6.764;2023-04-30T08:00:54;24.17;;;14.23;;
11837;SDS011;5978;51.020;6.764;2023-04-30T08:03:20;17.30;;;15.50;;
11837;SDS011;5978;51.020;6.764;2023-04-30T08:05:46;20.93;;;15.63;;
11837;SDS011;5978;51.020;6.764;2023-04-30T08:08:12;22.90;;;15.67;;
11837;SDS011;5978;51.020;6.764;2023-04-30T08:10:37;19.30;;;15.30;;
11837;SDS011;5978;51.020;6.764;2023-04-30T08:13:03;20.20;;;16.23;;
11837;SDS011;5978;51.020;6.764;2023-04-30T08:15:30;18.60;;;16.60;;
11837;SDS011;5978;51.020;6.764;2023-04-30T08:17:57;21.73;;;16.80;;
11837;SDS011;5978;51.020;6.764;2023-04-30T08:20:23;21.70;;;16.63;;
11837;SDS011;5978;51.020;6.764;2023-04-30T08:22:49;18.50;;;15.00;;
11837;SDS011;5978;51.020;6.764;2023-04-30T08:25:15;17.67;;;15.00;;
11837;SDS011;5978;51.020;6.764;2023-04-30T08:27:41;21.07;;;15.20;;
11837;SDS011;5978;51.020;6.764;2023-04-30T08:30:06;19.00;;;14.87;;
11837;SDS011;5978;51.020;6.764;2023-04-30T08:32:33;19.77;;;16.03;;
11837;SDS011;5978;51.020;6.764;2023-04-30T08:35:03;21.70;;;14.77;;
11837;SDS011;5978;51.020;6.764;2023-04-30T08:37:29;19.20;;;16.13;;
11837;SDS011;5978;51.020;6.764;2023-04-30T08:39:55;18.93;;;15.30;;
11837;SDS011;5978;51.020;6.764;2023-04-30T08:42:24;17.03;;;14.50;;
11837;SDS011;5978;51.020;6.764;2023-04-30T08:44:53;20.90;;;14.63;;
11837;SDS011;5978;51.020;6.764;2023-04-30T08:47:19;20.47;;;13.43;;
11837;SDS011;5978;51.020;6.764;2023-04-30T08:49:45;18.40;;;14.93;;
11837;SDS011;5978;51.020;6.764;2023-04-30T08:52:11;16.07;;;13.23;;
11837;SDS011;5978;51.020;6.764;2023-04-30T08:54:38;19.30;;;12.83;;
11837;SDS011;5978;51.020;6.764;2023-04-30T08:57:04;17.10;;;13.23;;
11837;SDS011;5978;51.020;6.764;2023-04-30T08:59:30;14.40;;;12.77;;
11837;SDS011;5978;51.020;6.764;2023-04-30T09:01:56;13.73;;;10.40;;
11837;SDS011;5978;51.020;6.764;2023-04-30T09:04:21;12.73;;;10.30;;
11837;SDS011;5978;51.020;6.764;2023-04-30T09:06:47;15.90;;;10.07;;
11837;SDS011;5978;51.020;6.764;2023-04-30T09:09:14;13.50;;;10.20;;
11837;SDS011;5978;51.020;6.764;2023-04-30T09:11:40;10.83;;;8.73;;
11837;SDS011;5978;51.020;6.764;2023-04-30T09:14:07;11.80;;;9.10;;
11837;SDS011;5978;51.020;6.764;2023-04-30T09:16:49;11.23;;;8.90;;
11837;SDS011;5978;51.020;6.764;2023-04-30T09:19:27;10.53;;;8.67;;
11837;SDS011;5978;51.020;6.764;2023-04-30T09:21:54;10.10;;;9.03;;
11837;SDS011;5978;51.020;6.764;2023-04-30T09:24:20;8.60;;;7.60;;
11837;SDS011;5978;51.020;6.764;2023-04-30T09:26:47;8.70;;;7.27;;
11837;SDS011;5978;51.020;6.764;2023-04-30T09:29:13;7.87;;;6.30;;
11837;SDS011;5978;51.020;6.764;2023-04-30T09:31:43;8.90;;;5.60;;
11837;SDS011;5978;51.020;6.764;2023-04-30T09:34:11;6.30;;;5.13;;
11837;SDS011;5978;51.020;6.764;2023-04-30T09:36:36;5.70;;;4.23;;
11837;SDS011;5978;51.020;6.764;2023-04-30T09:39:15;6.40;;;5.80;;
11837;SDS011;5978;51.020;6.764;2023-04-30T09:41:43;7.70;;;5.23;;
11837;SDS011;5978;51.020;6.764;2023-04-30T09:44:29;10.40;;;6.50;;
11837;SDS011;5978;51.020;6.764;2023-04-30T09:46:56;9.90;;;4.80;;
11837;SDS011;5978;51.020;6.764;2023-04-30T09:49:25;5.63;;;4.93;;
11837;SDS011;5978;51.020;6.764;2023-04-30T09:51:55;5.20;;;4.23;;
11837;SDS011;5978;51.020;6.764;2023-04-30T09:54:25;4.23;;;3.83;;
11837;SDS011;5978;51.020;6.764;2023-04-30T09:56:53;6.30;;;3.90;;
11837;SDS011;5978;51.020;6.764;2023-04-30T09:59:22;4.80;;;4.30;;
11837;SDS011;5978;51.020;6.764;2023-04-30T10:02:00;4.50;;;4.10;;
11837;SDS011;5978;51.020;6.764;2023-04-30T10:04:30;5.50;;;4.43;;
11837;SDS011;5978;51.020;6.764;2023-04-30T10:07:00;5.10;;;4.60;;
11837;SDS011;5978;51.020;6.764;2023-04-30T10:09:29;4.80;;;4.23;;
11837;SDS011;5978;51.020;6.764;2023-04-30T10:12:13;5.33;;;4.83;;
11837;SDS011;5978;51.020;6.764;2023-04-30T10:14:45;8.33;;;4.93;;
11837;SDS011;5978;51.020;6.764;2023-04-30T10:17:16;6.07;;;5.00;;
11837;SDS011;5978;51.020;6.764;2023-04-30T10:19:44;4.13;;;3.60;;
11837;SDS011;5978;51.020;6.764;2023-04-30T10:22:12;5.60;;;5.10;;
11837;SDS011;5978;51.020;6.764;2023-04-30T10:24:38;6.20;;;3.10;;
11837;SDS011;5978;51.020;6.764;2023-04-30T10:27:04;4.20;;;3.67;;
11837;SDS011;5978;51.020;6.764;2023-04-30T10:29:30;3.10;;;2.83;;
11837;SDS011;5978;51.020;6.764;2023-04-30T10:31:56;3.00;;;2.67;;
11837;SDS011;5978;51.020;6.764;2023-04-30T10:37:12;4.53;;;3.17;;
11837;SDS011;5978;51.020;6.764;2023-04-30T10:39:46;4.23;;;3.83;;
11837;SDS011;5978;51.020;6.764;2023-04-30T10:42:13;3.80;;;3.50;;
11837;SDS011;5978;51.020;6.764;2023-04-30T10:44:39;5.00;;;3.70;;
11837;SDS011;5978;51.020;6.764;2023-04-30T10:47:05;3.43;;;3.13;;
11837;SDS011;5978;51.020;6.764;2023-04-30T10:49:32;4.17;;;3.87;;
11837;SDS011;5978;51.020;6.764;2023-04-30T10:52:02;4.00;;;3.60;;
11837;SDS011;5978;51.020;6.764;2023-04-30T10:54:35;3.37;;;3.07;;
11837;SDS011;5978;51.020;6.764;2023-04-30T10:59:49;3.77;;;3.47;;
11837;SDS011;5978;51.020;6.764;2023-04-30T11:02:45;4.37;;;3.47;;
11837;SDS011;5978;51.020;6.764;2023-04-30T11:07:45;5.30;;;3.77;;
11837;SDS011;5978;51.020;6.764;2023-04-30T11:10:15;5.63;;;3.80;;
11837;SDS011;5978;51.020;6.764;2023-04-30T11:12:46;6.43;;;4.27;;
11837;SDS011;5978;51.020;6.764;2023-04-30T11:15:16;4.37;;;3.97;;
11837;SDS011;5978;51.020;6.764;2023-04-30T11:17:44;4.43;;;4.03;;
11837;SDS011;5978;51.020;6.764;2023-04-30T11:20:12;4.57;;;3.63;;
11837;SDS011;5978;51.020;6.764;2023-04-30T11:22:39;3.73;;;3.43;;
11837;SDS011;5978;51.020;6.764;2023-04-30T11:25:05;3.83;;;3.53;;
11837;SDS011;5978;51.020;6.764;2023-04-30T11:27:37;5.50;;;2.60;;
11837;SDS011;5978;51.020;6.764;2023-04-30T11:30:09;3.93;;;2.90;;
11837;SDS011;5978;51.020;6.764;2023-04-30T11:32:40;2.60;;;2.27;;
11837;SDS011;5978;51.020;6.764;2023-04-30T11:35:11;2.23;;;1.60;;
11837;SDS011;5978;51.020;6.764;2023-04-30T11:37:42;1.80;;;1.70;;
11837;SDS011;5978;51.020;6.764;2023-04-30T11:40:13;1.57;;;1.47;;
11837;SDS011;5978;51.020;6.764;2023-04-30T11:42:41;1.70;;;1.60;;
11837;SDS011;5978;51.020;6.764;2023-04-30T11:45:09;1.83;;;1.63;;
11837;SDS011;5978;51.020;6.764;2023-04-30T11:50:24;1.90;;;1.30;;
11837;SDS011;5978;51.020;6.764;2023-04-30T11:52:53;1.80;;;1.70;;
11837;SDS011;5978;51.020;6.764;2023-04-30T11:55:23;1.87;;;1.43;;
11837;SDS011;5978;51.020;6.764;2023-04-30T11:57:50;1.37;;;1.17;;
11837;SDS011;5978;51.020;6.764;2023-04-30T12:00:19;2.10;;;1.10;;
11837;SDS011;5978;51.020;6.764;2023-04-30T12:02:47;1.70;;;1.50;;
11837;SDS011;5978;51.020;6.764;2023-04-30T12:05:14;1.40;;;1.27;;
11837;SDS011;5978;51.020;6.764;2023-04-30T12:07:56;1.40;;;1.30;;
11837;SDS011;5978;51.020;6.764;2023-04-30T12:10:25;1.20;;;1.10;;
11837;SDS011;5978;51.020;6.764;2023-04-30T12:12:51;1.13;;;1.03;;
11837;SDS011;5978;51.020;6.764;2023-04-30T12:15:19;1.50;;;1.07;;
11837;SDS011;5978;51.020;6.764;2023-04-30T12:17:51;2.27;;;1.50;;
11837;SDS011;5978;51.020;6.764;2023-04-30T12:20:18;1.00;;;0.90;;
11837;SDS011;5978;51.020;6.764;2023-04-30T12:22:45;2.03;;;0.87;;
11837;SDS011;5978;51.020;6.764;2023-04-30T12:25:15;3.53;;;1.43;;
11837;SDS011;5978;51.020;6.764;2023-04-30T12:27:49;1.10;;;0.90;;
11837;SDS011;5978;51.020;6.764;2023-04-30T12:30:20;1.40;;;1.20;;
11837;SDS011;5978;51.020;6.764;2023-04-30T12:32:49;1.27;;;1.10;;
11837;SDS011;5978;51.020;6.764;2023-04-30T12:35:16;1.20;;;0.90;;
11837;SDS011;5978;51.020;6.764;2023-04-30T12:37:44;2.00;;;1.90;;
11837;SDS011;5978;51.020;6.764;2023-04-30T12:40:11;9.57;;;8.93;;
11837;SDS011;5978;51.020;6.764;2023-04-30T12:42:37;1.93;;;1.83;;
11837;SDS011;5978;51.020;6.764;2023-04-30T12:45:03;1.43;;;1.30;;
11837;SDS011;5978;51.020;6.764;2023-04-30T12:47:30;4.53;;;2.30;;
11837;SDS011;5978;51.020;6.764;2023-04-30T12:49:55;3.17;;;2.97;;
11837;SDS011;5978;51.020;6.764;2023-04-30T12:52:24;9.17;;;8.37;;
11837;SDS011;5978;51.020;6.764;2023-04-30T12:54:50;2.43;;;2.23;;
11837;SDS011;5978;51.020;6.764;2023-04-30T12:57:18;2.30;;;2.10;;
11837;SDS011;5978;51.020;6.764;2023-04-30T13:02:21;4.90;;;2.17;;
11837;SDS011;5978;51.020;6.764;2023-04-30T13:04:48;1.50;;;1.30;;
11837;SDS011;5978;51.020;6.764;2023-04-30T13:07:15;1.90;;;1.70;;
11837;SDS011;5978;51.020;6.764;2023-04-30T13:09:41;1.10;;;0.97;;
11837;SDS011;5978;51.020;6.764;2023-04-30T13:12:07;1.43;;;1.13;;
11837;SDS011;5978;51.020;6.764;2023-04-30T13:14:33;2.63;;;0.80;;
11837;SDS011;5978;51.020;6.764;2023-04-30T13:16:59;2.00;;;1.80;;
11837;SDS011;5978;51.020;6.764;2023-04-30T13:19:28;3.43;;;3.13;;
11837;SDS011;5978;51.020;6.764;2023-04-30T13:21:54;3.40;;;3.10;;
11837;SDS011;5978;51.020;6.764;2023-04-30T13:24:21;1.53;;;1.43;;
11837;SDS011;5978;51.020;6.764;2023-04-30T13:26:46;1.63;;;0.93;;
11837;SDS011;5978;51.020;6.764;2023-04-30T13:29:12;1.40;;;1.30;;
11837;SDS011;5978;51.020;6.764;2023-04-30T13:31:38;2.60;;;2.40;;
11837;SDS011;5978;51.020;6.764;2023-04-30T13:34:04;3.83;;;1.40;;
11837;SDS011;5978;51.020;6.764;2023-04-30T13:36:30;1.50;;;1.40;;
11837;SDS011;5978;51.020;6.764;2023-04-30T13:38:56;1.10;;;0.90;;
11837;SDS011;5978;51.020;6.764;2023-04-30T13:41:22;1.10;;;1.00;;
11837;SDS011;5978;51.020;6.764;2023-04-30T13:43:49;1.47;;;1.10;;
11837;SDS011;5978;51.020;6.764;2023-04-30T13:46:15;1.20;;;1.10;;
11837;SDS011;5978;51.020;6.764;2023-04-30T13:48:41;1.63;;;1.20;;
11837;SDS011;5978;51.020;6.764;2023-04-30T13:51:07;1.47;;;0.93;;
11837;SDS011;5978;51.020;6.764;2023-04-30T13:53:32;1.10;;;1.00;;
11837;SDS011;5978;51.020;6.764;2023-04-30T13:55:59;1.33;;;0.97;;
11837;SDS011;5978;51.020;6.764;2023-04-30T13:58:25;1.10;;;1.00;;
11837;SDS011;5978;51.020;6.764;2023-04-30T14:00:51;1.67;;;1.30;;
11837;SDS011;5978;51.020;6.764;2023-04-30T14:03:17;1.43;;;1.33;;
11837;SDS011;5978;51.020;6.764;2023-04-30T14:05:43;1.20;;;1.00;;
11837;SDS011;5978;51.020;6.764;2023-04-30T14:08:08;1.33;;;1.20;;
11837;SDS011;5978;51.020;6.764;2023-04-30T14:10:34;1.10;;;0.97;;
11837;SDS011;5978;51.020;6.764;2023-04-30T14:12:59;2.23;;;1.10;;
11837;SDS011;5978;51.020;6.764;2023-04-30T14:15:25;1.10;;;1.00;;
11837;SDS011;5978;51.020;6.764;2023-04-30T14:17:54;1.37;;;1.13;;
11837;SDS011;5978;51.020;6.764;2023-04-30T14:20:20;1.20;;;0.93;;
11837;SDS011;5978;51.020;6.764;2023-04-30T14:22:46;1.27;;;1.17;;
11837;SDS011;5978;51.020;6.764;2023-04-30T14:25:11;2.43;;;1.50;;
11837;SDS011;5978;51.020;6.764;2023-04-30T14:27:38;1.30;;;1.20;;
11837;SDS011;5978;51.020;6.764;2023-04-30T14:30:05;2.17;;;1.20;;
11837;SDS011;5978;51.020;6.764;2023-04-30T14:32:31;1.50;;;1.07;;
11837;SDS011;5978;51.020;6.764;2023-04-30T14:34:57;1.33;;;1.07;;
11837;SDS011;5978;51.020;6.764;2023-04-30T14:37:23;1.40;;;1.17;;
11837;SDS011;5978;51.020;6.764;2023-04-30T14:39:49;1.63;;;0.90;;
11837;SDS011;5978;51.020;6.764;2023-04-30T14:42:15;1.20;;;1.10;;
11837;SDS011;5978;51.020;6.764;2023-04-30T14:44:40;1.10;;;1.00;;
11837;SDS011;5978;51.020;6.764;2023-04-30T14:47:06;1.20;;;1.10;;
11837;SDS011;5978;51.020;6.764;2023-04-30T14:49:32;1.27;;;0.90;;
11837;SDS011;5978;51.020;6.764;2023-04-30T14:51:58;1.20;;;1.10;;
11837;SDS011;5978;51.020;6.764;2023-04-30T14:54:24;1.07;;;0.97;;
11837;SDS011;5978;51.020;6.764;2023-04-30T14:56:49;1.67;;;1.00;;
11837;SDS011;5978;51.020;6.764;2023-04-30T14:59:16;1.10;;;1.00;;
11837;SDS011;5978;51.020;6.764;2023-04-30T15:01:42;1.33;;;1.23;;
11837;SDS011;5978;51.020;6.764;2023-04-30T15:04:07;1.30;;;1.20;;
11837;SDS011;5978;51.020;6.764;2023-04-30T15:06:33;1.93;;;1.20;;